sensor_id;sensor_type;location;lat;lon;timestamp;P1;durP1;ratioP1;P2;durP2;ratioP2
18082;SDS011;9168;51.194;6.840;2022-08-20T00:02:11;7.00;;;3.90;;
18082;SDS011;9168;51.194;6.840;2022-08-20T00:04:39;10.63;;;3.20;;
18082;SDS011;9168;51.194;6.840;2022-08-20T00:07:06;5.35;;;3.70;;
18082;SDS011;9168;51.194;6.840;2022-08-20T00:09:33;8.77;;;3.28;;
18082;SDS011;9168;51.194;6.840;2022-08-20T00:12:00;6.65;;;3.42;;
18082;SDS011;9168;51.194;6.840;2022-08-20T00:14:27;6.53;;;3.42;;
18082;SDS011;9168;51.194;6.840;2022-08-20T00:16:53;6.20;;;3.30;;
18082;SDS011;9168;51.194;6.840;2022-08-20T00:19:22;9.45;;;3.55;;
18082;SDS011;9168;51.194;6.840;2022-08-20T00:21:48;15.25;;;4.45;;
18082;SDS011;9168;51.194;6.840;2022-08-20T00:24:15;16.55;;;6.00;;
18082;SDS011;9168;51.194;6.840;2022-08-20T00:26:42;12.43;;;5.68;;
18082;SDS011;9168;51.194;6.840;2022-08-20T00:29:09;17.95;;;5.60;;
18082;SDS011;9168;51.194;6.840;2022-08-20T00:31:36;16.60;;;6.18;;
18082;SDS011;9168;51.194;6.840;2022-08-20T00:34:03;13.52;;;6.60;;
18082;SDS011;9168;51.194;6.840;2022-08-20T00:36:31;13.27;;;6.72;;
18082;SDS011;9168;51.194;6.840;2022-08-20T00:38:58;14.43;;;7.35;;
18082;SDS011;9168;51.194;6.840;2022-08-20T00:41:25;15.60;;;7.03;;
18082;SDS011;9168;51.194;6.840;2022-08-20T00:44:03;14.45;;;7.10;;
18082;SDS011;9168;51.194;6.840;2022-08-20T00:46:32;14.77;;;7.55;;
18082;SDS011;9168;51.194;6.840;2022-08-20T00:49:00;15.18;;;7.63;;
18082;SDS011;9168;51.194;6.840;2022-08-20T00:51:31;11.32;;;6.70;;
18082;SDS011;9168;51.194;6.840;2022-08-20T00:54:04;16.08;;;6.97;;
18082;SDS011;9168;51.194;6.840;2022-08-20T00:56:36;15.07;;;8.10;;
18082;SDS011;9168;51.194;6.840;2022-08-20T00:59:05;19.02;;;8.35;;
18082;SDS011;9168;51.194;6.840;2022-08-20T01:01:36;15.13;;;7.75;;
18082;SDS011;9168;51.194;6.840;2022-08-20T01:04:04;15.82;;;7.25;;
18082;SDS011;9168;51.194;6.840;2022-08-20T01:06:31;17.80;;;8.23;;
18082;SDS011;9168;51.194;6.840;2022-08-20T01:08:59;14.32;;;8.48;;
18082;SDS011;9168;51.194;6.840;2022-08-20T01:11:26;13.52;;;8.27;;
18082;SDS011;9168;51.194;6.840;2022-08-20T01:13:57;18.38;;;7.88;;
18082;SDS011;9168;51.194;6.840;2022-08-20T01:16:26;16.70;;;8.00;;
18082;SDS011;9168;51.194;6.840;2022-08-20T01:18:56;19.50;;;8.60;;
18082;SDS011;9168;51.194;6.840;2022-08-20T01:21:25;13.85;;;8.45;;
18082;SDS011;9168;51.194;6.840;2022-08-20T01:23:58;14.23;;;8.40;;
18082;SDS011;9168;51.194;6.840;2022-08-20T01:26:33;13.13;;;7.70;;
18082;SDS011;9168;51.194;6.840;2022-08-20T01:29:03;15.00;;;8.38;;
18082;SDS011;9168;51.194;6.840;2022-08-20T01:31:34;12.48;;;7.57;;
18082;SDS011;9168;51.194;6.840;2022-08-20T01:34:03;14.45;;;7.78;;
18082;SDS011;9168;51.194;6.840;2022-08-20T01:36:38;12.35;;;7.53;;
18082;SDS011;9168;51.194;6.840;2022-08-20T01:39:10;20.88;;;8.80;;
18082;SDS011;9168;51.194;6.840;2022-08-20T01:44:29;18.08;;;8.95;;
18082;SDS011;9168;51.194;6.840;2022-08-20T01:47:05;16.35;;;8.63;;
18082;SDS011;9168;51.194;6.840;2022-08-20T01:49:34;16.45;;;9.02;;
18082;SDS011;9168;51.194;6.840;2022-08-20T01:52:08;18.98;;;9.45;;
18082;SDS011;9168;51.194;6.840;2022-08-20T01:54:38;17.67;;;9.77;;
18082;SDS011;9168;51.194;6.840;2022-08-20T01:57:11;16.00;;;8.73;;
18082;SDS011;9168;51.194;6.840;2022-08-20T01:59:40;22.13;;;10.13;;
18082;SDS011;9168;51.194;6.840;2022-08-20T02:02:07;16.77;;;8.63;;
18082;SDS011;9168;51.194;6.840;2022-08-20T02:04:35;17.35;;;9.07;;
18082;SDS011;9168;51.194;6.840;2022-08-20T02:07:03;18.60;;;9.05;;
18082;SDS011;9168;51.194;6.840;2022-08-20T02:09:34;15.45;;;8.32;;
18082;SDS011;9168;51.194;6.840;2022-08-20T02:12:04;14.18;;;8.88;;
18082;SDS011;9168;51.194;6.840;2022-08-20T02:14:34;19.17;;;9.15;;
18082;SDS011;9168;51.194;6.840;2022-08-20T02:17:06;18.15;;;9.25;;
18082;SDS011;9168;51.194;6.840;2022-08-20T02:19:34;14.50;;;8.77;;
18082;SDS011;9168;51.194;6.840;2022-08-20T02:22:06;16.52;;;8.65;;
18082;SDS011;9168;51.194;6.840;2022-08-20T02:24:39;15.88;;;9.65;;
18082;SDS011;9168;51.194;6.840;2022-08-20T02:27:07;18.05;;;9.10;;
18082;SDS011;9168;51.194;6.840;2022-08-20T02:29:35;15.35;;;8.80;;
18082;SDS011;9168;51.194;6.840;2022-08-20T02:32:02;17.70;;;8.93;;
18082;SDS011;9168;51.194;6.840;2022-08-20T02:34:30;16.10;;;9.50;;
18082;SDS011;9168;51.194;6.840;2022-08-20T02:36:59;13.00;;;7.72;;
18082;SDS011;9168;51.194;6.840;2022-08-20T02:39:26;18.42;;;9.18;;
18082;SDS011;9168;51.194;6.840;2022-08-20T02:41:53;15.65;;;8.57;;
18082;SDS011;9168;51.194;6.840;2022-08-20T02:44:20;16.83;;;8.98;;
18082;SDS011;9168;51.194;6.840;2022-08-20T02:46:48;15.70;;;9.13;;
18082;SDS011;9168;51.194;6.840;2022-08-20T02:49:15;14.63;;;9.07;;
18082;SDS011;9168;51.194;6.840;2022-08-20T02:51:43;12.77;;;8.27;;
18082;SDS011;9168;51.194;6.840;2022-08-20T02:54:11;13.70;;;7.32;;
18082;SDS011;9168;51.194;6.840;2022-08-20T02:56:38;14.05;;;8.43;;
18082;SDS011;9168;51.194;6.840;2022-08-20T02:59:05;14.82;;;7.85;;
18082;SDS011;9168;51.194;6.840;2022-08-20T03:01:32;18.15;;;8.60;;
18082;SDS011;9168;51.194;6.840;2022-08-20T03:04:01;15.70;;;8.57;;
18082;SDS011;9168;51.194;6.840;2022-08-20T03:06:29;12.80;;;7.95;;
18082;SDS011;9168;51.194;6.840;2022-08-20T03:08:56;14.60;;;8.10;;
18082;SDS011;9168;51.194;6.840;2022-08-20T03:11:23;15.60;;;8.18;;
18082;SDS011;9168;51.194;6.840;2022-08-20T03:13:50;14.93;;;8.18;;
18082;SDS011;9168;51.194;6.840;2022-08-20T03:16:17;14.25;;;8.77;;
18082;SDS011;9168;51.194;6.840;2022-08-20T03:18:45;16.42;;;8.07;;
18082;SDS011;9168;51.194;6.840;2022-08-20T03:21:13;16.20;;;9.30;;
18082;SDS011;9168;51.194;6.840;2022-08-20T03:23:41;17.35;;;8.52;;
18082;SDS011;9168;51.194;6.840;2022-08-20T03:26:08;17.88;;;8.90;;
18082;SDS011;9168;51.194;6.840;2022-08-20T03:28:37;14.50;;;8.13;;
18082;SDS011;9168;51.194;6.840;2022-08-20T03:31:05;17.95;;;9.88;;
18082;SDS011;9168;51.194;6.840;2022-08-20T03:33:32;17.25;;;9.02;;
18082;SDS011;9168;51.194;6.840;2022-08-20T03:36:00;21.08;;;9.48;;
18082;SDS011;9168;51.194;6.840;2022-08-20T03:38:28;16.08;;;9.90;;
18082;SDS011;9168;51.194;6.840;2022-08-20T03:40:55;15.63;;;9.40;;
18082;SDS011;9168;51.194;6.840;2022-08-20T03:43:22;14.15;;;8.68;;
18082;SDS011;9168;51.194;6.840;2022-08-20T03:45:49;16.27;;;9.73;;
18082;SDS011;9168;51.194;6.840;2022-08-20T03:48:17;17.23;;;10.25;;
18082;SDS011;9168;51.194;6.840;2022-08-20T03:50:45;16.60;;;9.10;;
18082;SDS011;9168;51.194;6.840;2022-08-20T03:53:13;17.02;;;9.23;;
18082;SDS011;9168;51.194;6.840;2022-08-20T03:55:43;15.45;;;9.35;;
18082;SDS011;9168;51.194;6.840;2022-08-20T03:58:11;18.42;;;9.23;;
18082;SDS011;9168;51.194;6.840;2022-08-20T04:00:41;19.40;;;10.15;;
18082;SDS011;9168;51.194;6.840;2022-08-20T04:03:09;15.52;;;9.35;;
18082;SDS011;9168;51.194;6.840;2022-08-20T04:05:37;17.88;;;9.88;;
18082;SDS011;9168;51.194;6.840;2022-08-20T04:08:06;18.80;;;10.35;;
18082;SDS011;9168;51.194;6.840;2022-08-20T04:10:34;19.35;;;10.05;;
18082;SDS011;9168;51.194;6.840;2022-08-20T04:13:03;18.45;;;10.52;;
18082;SDS011;9168;51.194;6.840;2022-08-20T04:15:32;21.35;;;10.32;;
18082;SDS011;9168;51.194;6.840;2022-08-20T04:18:00;21.13;;;11.55;;
18082;SDS011;9168;51.194;6.840;2022-08-20T04:20:30;18.83;;;11.00;;
18082;SDS011;9168;51.194;6.840;2022-08-20T04:22:57;21.02;;;10.65;;
18082;SDS011;9168;51.194;6.840;2022-08-20T04:25:24;20.70;;;10.90;;
18082;SDS011;9168;51.194;6.840;2022-08-20T04:27:52;19.40;;;11.05;;
18082;SDS011;9168;51.194;6.840;2022-08-20T04:30:20;20.42;;;11.20;;
18082;SDS011;9168;51.194;6.840;2022-08-20T04:32:47;19.55;;;10.73;;
18082;SDS011;9168;51.194;6.840;2022-08-20T04:35:15;31.80;;;13.10;;
18082;SDS011;9168;51.194;6.840;2022-08-20T04:37:44;31.15;;;11.57;;
18082;SDS011;9168;51.194;6.840;2022-08-20T04:40:13;22.55;;;11.23;;
18082;SDS011;9168;51.194;6.840;2022-08-20T04:43:00;15.45;;;8.98;;
18082;SDS011;9168;51.194;6.840;2022-08-20T04:45:30;22.98;;;9.70;;
18082;SDS011;9168;51.194;6.840;2022-08-20T04:47:59;17.70;;;9.70;;
18082;SDS011;9168;51.194;6.840;2022-08-20T04:50:29;15.00;;;8.60;;
18082;SDS011;9168;51.194;6.840;2022-08-20T04:52:58;20.17;;;9.43;;
18082;SDS011;9168;51.194;6.840;2022-08-20T04:55:25;20.73;;;9.40;;
18082;SDS011;9168;51.194;6.840;2022-08-20T04:57:52;17.38;;;9.30;;
18082;SDS011;9168;51.194;6.840;2022-08-20T05:00:20;15.00;;;7.47;;
18082;SDS011;9168;51.194;6.840;2022-08-20T05:02:48;18.25;;;8.32;;
18082;SDS011;9168;51.194;6.840;2022-08-20T05:05:15;14.70;;;9.13;;
18082;SDS011;9168;51.194;6.840;2022-08-20T05:07:43;23.30;;;8.70;;
18082;SDS011;9168;51.194;6.840;2022-08-20T05:10:11;24.80;;;10.95;;
18082;SDS011;9168;51.194;6.840;2022-08-20T05:12:42;24.75;;;9.23;;
18082;SDS011;9168;51.194;6.840;2022-08-20T05:15:10;16.05;;;8.95;;
18082;SDS011;9168;51.194;6.840;2022-08-20T05:17:38;21.85;;;9.95;;
18082;SDS011;9168;51.194;6.840;2022-08-20T05:20:08;17.38;;;8.35;;
18082;SDS011;9168;51.194;6.840;2022-08-20T05:22:38;19.40;;;9.15;;
18082;SDS011;9168;51.194;6.840;2022-08-20T05:25:05;19.75;;;9.75;;
18082;SDS011;9168;51.194;6.840;2022-08-20T05:27:33;17.83;;;9.43;;
18082;SDS011;9168;51.194;6.840;2022-08-20T05:30:01;16.80;;;9.32;;
18082;SDS011;9168;51.194;6.840;2022-08-20T05:32:31;19.92;;;8.85;;
18082;SDS011;9168;51.194;6.840;2022-08-20T05:34:59;20.23;;;9.40;;
18082;SDS011;9168;51.194;6.840;2022-08-20T05:37:27;17.30;;;10.13;;
18082;SDS011;9168;51.194;6.840;2022-08-20T05:39:55;16.95;;;8.85;;
18082;SDS011;9168;51.194;6.840;2022-08-20T05:42:22;18.67;;;9.93;;
18082;SDS011;9168;51.194;6.840;2022-08-20T05:44:50;15.60;;;8.48;;
18082;SDS011;9168;51.194;6.840;2022-08-20T05:47:17;20.48;;;8.88;;
18082;SDS011;9168;51.194;6.840;2022-08-20T05:49:46;19.42;;;9.20;;
18082;SDS011;9168;51.194;6.840;2022-08-20T05:52:13;19.10;;;9.88;;
18082;SDS011;9168;51.194;6.840;2022-08-20T05:54:42;16.48;;;8.20;;
18082;SDS011;9168;51.194;6.840;2022-08-20T05:57:09;12.93;;;6.55;;
18082;SDS011;9168;51.194;6.840;2022-08-20T05:59:38;10.88;;;7.28;;
18082;SDS011;9168;51.194;6.840;2022-08-20T06:02:04;12.05;;;6.55;;
18082;SDS011;9168;51.194;6.840;2022-08-20T06:04:52;11.32;;;6.13;;
18082;SDS011;9168;51.194;6.840;2022-08-20T06:07:18;8.25;;;5.18;;
18082;SDS011;9168;51.194;6.840;2022-08-20T06:09:46;7.53;;;4.95;;
18082;SDS011;9168;51.194;6.840;2022-08-20T06:12:13;15.50;;;4.40;;
18082;SDS011;9168;51.194;6.840;2022-08-20T06:14:40;7.00;;;4.15;;
18082;SDS011;9168;51.194;6.840;2022-08-20T06:17:09;8.55;;;4.00;;
18082;SDS011;9168;51.194;6.840;2022-08-20T06:19:37;7.40;;;3.80;;
18082;SDS011;9168;51.194;6.840;2022-08-20T06:22:05;5.60;;;4.13;;
18082;SDS011;9168;51.194;6.840;2022-08-20T06:24:32;6.88;;;3.90;;
18082;SDS011;9168;51.194;6.840;2022-08-20T06:27:02;8.25;;;4.50;;
18082;SDS011;9168;51.194;6.840;2022-08-20T06:29:30;6.88;;;4.38;;
18082;SDS011;9168;51.194;6.840;2022-08-20T06:31:58;12.90;;;4.55;;
18082;SDS011;9168;51.194;6.840;2022-08-20T06:34:26;8.80;;;4.47;;
18082;SDS011;9168;51.194;6.840;2022-08-20T06:36:53;10.70;;;6.28;;
18082;SDS011;9168;51.194;6.840;2022-08-20T06:39:21;14.65;;;6.45;;
18082;SDS011;9168;51.194;6.840;2022-08-20T06:41:48;14.88;;;8.90;;
18082;SDS011;9168;51.194;6.840;2022-08-20T06:44:17;21.33;;;11.00;;
18082;SDS011;9168;51.194;6.840;2022-08-20T06:46:44;26.88;;;14.55;;
18082;SDS011;9168;51.194;6.840;2022-08-20T06:49:11;27.77;;;17.05;;
18082;SDS011;9168;51.194;6.840;2022-08-20T06:51:38;34.33;;;20.25;;
18082;SDS011;9168;51.194;6.840;2022-08-20T06:54:05;44.45;;;24.77;;
18082;SDS011;9168;51.194;6.840;2022-08-20T06:56:32;50.13;;;28.23;;
18082;SDS011;9168;51.194;6.840;2022-08-20T06:58:59;49.28;;;28.60;;
18082;SDS011;9168;51.194;6.840;2022-08-20T07:01:28;51.90;;;31.63;;
18082;SDS011;9168;51.194;6.840;2022-08-20T07:03:54;52.60;;;31.35;;
18082;SDS011;9168;51.194;6.840;2022-08-20T07:06:23;55.60;;;32.28;;
18082;SDS011;9168;51.194;6.840;2022-08-20T07:08:51;53.13;;;32.30;;
18082;SDS011;9168;51.194;6.840;2022-08-20T07:11:18;50.40;;;30.35;;
18082;SDS011;9168;51.194;6.840;2022-08-20T07:13:45;48.47;;;29.25;;
18082;SDS011;9168;51.194;6.840;2022-08-20T07:16:13;52.05;;;28.88;;
18082;SDS011;9168;51.194;6.840;2022-08-20T07:18:41;48.88;;;29.63;;
18082;SDS011;9168;51.194;6.840;2022-08-20T07:21:08;53.38;;;27.45;;
18082;SDS011;9168;51.194;6.840;2022-08-20T07:23:36;51.22;;;28.10;;
18082;SDS011;9168;51.194;6.840;2022-08-20T07:26:03;50.25;;;27.15;;
18082;SDS011;9168;51.194;6.840;2022-08-20T07:28:32;49.65;;;27.95;;
18082;SDS011;9168;51.194;6.840;2022-08-20T07:30:59;52.58;;;27.38;;
18082;SDS011;9168;51.194;6.840;2022-08-20T07:33:44;58.95;;;29.02;;
18082;SDS011;9168;51.194;6.840;2022-08-20T07:36:11;50.65;;;28.73;;
18082;SDS011;9168;51.194;6.840;2022-08-20T07:38:38;49.17;;;29.25;;
18082;SDS011;9168;51.194;6.840;2022-08-20T07:41:06;52.97;;;28.83;;
18082;SDS011;9168;51.194;6.840;2022-08-20T07:43:39;50.17;;;27.67;;
18082;SDS011;9168;51.194;6.840;2022-08-20T07:46:09;41.13;;;25.60;;
18082;SDS011;9168;51.194;6.840;2022-08-20T07:48:37;46.95;;;23.98;;
18082;SDS011;9168;51.194;6.840;2022-08-20T07:51:08;43.47;;;24.02;;
18082;SDS011;9168;51.194;6.840;2022-08-20T07:53:36;43.33;;;24.13;;
18082;SDS011;9168;51.194;6.840;2022-08-20T07:56:05;39.50;;;24.25;;
18082;SDS011;9168;51.194;6.840;2022-08-20T07:58:35;38.30;;;22.30;;
18082;SDS011;9168;51.194;6.840;2022-08-20T08:01:03;37.47;;;21.00;;
18082;SDS011;9168;51.194;6.840;2022-08-20T08:03:31;34.45;;;21.30;;
18082;SDS011;9168;51.194;6.840;2022-08-20T08:05:58;44.05;;;21.83;;
18082;SDS011;9168;51.194;6.840;2022-08-20T08:08:26;38.78;;;22.85;;
18082;SDS011;9168;51.194;6.840;2022-08-20T08:10:55;40.95;;;20.05;;
18082;SDS011;9168;51.194;6.840;2022-08-20T08:13:24;35.08;;;18.38;;
18082;SDS011;9168;51.194;6.840;2022-08-20T08:15:53;36.80;;;18.38;;
18082;SDS011;9168;51.194;6.840;2022-08-20T08:18:25;32.80;;;18.75;;
18082;SDS011;9168;51.194;6.840;2022-08-20T08:20:56;30.10;;;17.55;;
18082;SDS011;9168;51.194;6.840;2022-08-20T08:23:23;39.80;;;18.70;;
18082;SDS011;9168;51.194;6.840;2022-08-20T08:25:53;39.75;;;19.05;;
18082;SDS011;9168;51.194;6.840;2022-08-20T08:28:20;34.17;;;17.77;;
18082;SDS011;9168;51.194;6.840;2022-08-20T08:30:48;35.88;;;18.73;;
18082;SDS011;9168;51.194;6.840;2022-08-20T08:33:19;36.72;;;18.42;;
18082;SDS011;9168;51.194;6.840;2022-08-20T08:35:57;33.17;;;19.10;;
18082;SDS011;9168;51.194;6.840;2022-08-20T08:38:25;39.70;;;19.15;;
18082;SDS011;9168;51.194;6.840;2022-08-20T08:40:55;32.78;;;18.25;;
18082;SDS011;9168;51.194;6.840;2022-08-20T08:43:27;38.83;;;17.50;;
18082;SDS011;9168;51.194;6.840;2022-08-20T08:45:57;35.55;;;17.88;;
18082;SDS011;9168;51.194;6.840;2022-08-20T08:48:31;33.58;;;17.02;;
18082;SDS011;9168;51.194;6.840;2022-08-20T08:51:02;27.90;;;16.45;;
18082;SDS011;9168;51.194;6.840;2022-08-20T08:53:38;31.77;;;16.20;;
18082;SDS011;9168;51.194;6.840;2022-08-20T08:56:12;36.25;;;18.45;;
18082;SDS011;9168;51.194;6.840;2022-08-20T08:58:41;36.40;;;19.48;;
18082;SDS011;9168;51.194;6.840;2022-08-20T09:01:09;41.58;;;18.25;;
18082;SDS011;9168;51.194;6.840;2022-08-20T09:04:31;35.42;;;18.80;;
18082;SDS011;9168;51.194;6.840;2022-08-20T09:07:01;39.13;;;17.58;;
18082;SDS011;9168;51.194;6.840;2022-08-20T09:09:30;39.83;;;18.60;;
18082;SDS011;9168;51.194;6.840;2022-08-20T09:12:01;44.28;;;19.25;;
18082;SDS011;9168;51.194;6.840;2022-08-20T09:14:30;43.08;;;17.42;;
18082;SDS011;9168;51.194;6.840;2022-08-20T09:16:58;39.80;;;17.15;;
18082;SDS011;9168;51.194;6.840;2022-08-20T09:19:25;38.42;;;17.55;;
18082;SDS011;9168;51.194;6.840;2022-08-20T09:21:53;33.53;;;17.52;;
18082;SDS011;9168;51.194;6.840;2022-08-20T09:24:20;34.58;;;18.23;;
18082;SDS011;9168;51.194;6.840;2022-08-20T09:26:47;35.35;;;16.60;;
18082;SDS011;9168;51.194;6.840;2022-08-20T09:29:14;34.10;;;16.75;;
18082;SDS011;9168;51.194;6.840;2022-08-20T09:31:41;28.90;;;14.32;;
18082;SDS011;9168;51.194;6.840;2022-08-20T09:34:08;36.17;;;17.70;;
18082;SDS011;9168;51.194;6.840;2022-08-20T09:36:35;36.92;;;17.17;;
18082;SDS011;9168;51.194;6.840;2022-08-20T09:39:03;41.55;;;18.08;;
18082;SDS011;9168;51.194;6.840;2022-08-20T09:41:30;41.15;;;19.75;;
18082;SDS011;9168;51.194;6.840;2022-08-20T09:43:58;34.75;;;18.95;;
18082;SDS011;9168;51.194;6.840;2022-08-20T09:46:24;42.03;;;18.88;;
18082;SDS011;9168;51.194;6.840;2022-08-20T09:48:51;46.00;;;19.85;;
18082;SDS011;9168;51.194;6.840;2022-08-20T09:51:18;45.63;;;19.48;;
18082;SDS011;9168;51.194;6.840;2022-08-20T09:53:45;39.38;;;19.35;;
18082;SDS011;9168;51.194;6.840;2022-08-20T09:56:14;43.47;;;19.17;;
18082;SDS011;9168;51.194;6.840;2022-08-20T09:58:43;43.35;;;17.23;;
18082;SDS011;9168;51.194;6.840;2022-08-20T10:01:14;40.65;;;19.10;;
18082;SDS011;9168;51.194;6.840;2022-08-20T10:03:44;45.95;;;18.17;;
18082;SDS011;9168;51.194;6.840;2022-08-20T10:06:13;35.15;;;18.45;;
18082;SDS011;9168;51.194;6.840;2022-08-20T10:08:40;41.78;;;17.30;;
18082;SDS011;9168;51.194;6.840;2022-08-20T10:11:07;43.03;;;18.80;;
18082;SDS011;9168;51.194;6.840;2022-08-20T10:13:36;41.67;;;19.52;;
18082;SDS011;9168;51.194;6.840;2022-08-20T10:16:03;38.22;;;19.38;;
18082;SDS011;9168;51.194;6.840;2022-08-20T10:18:31;41.85;;;19.65;;
18082;SDS011;9168;51.194;6.840;2022-08-20T10:20:57;39.70;;;18.85;;
18082;SDS011;9168;51.194;6.840;2022-08-20T10:23:24;43.33;;;18.60;;
18082;SDS011;9168;51.194;6.840;2022-08-20T10:25:51;43.75;;;17.17;;
18082;SDS011;9168;51.194;6.840;2022-08-20T10:28:18;40.85;;;19.58;;
18082;SDS011;9168;51.194;6.840;2022-08-20T10:30:47;40.55;;;19.00;;
18082;SDS011;9168;51.194;6.840;2022-08-20T10:33:13;40.97;;;18.30;;
18082;SDS011;9168;51.194;6.840;2022-08-20T10:35:40;42.35;;;19.95;;
18082;SDS011;9168;51.194;6.840;2022-08-20T10:41:09;40.03;;;18.08;;
18082;SDS011;9168;51.194;6.840;2022-08-20T10:46:15;37.05;;;18.27;;
18082;SDS011;9168;51.194;6.840;2022-08-20T10:48:42;35.55;;;18.27;;
18082;SDS011;9168;51.194;6.840;2022-08-20T10:51:09;35.28;;;17.83;;
18082;SDS011;9168;51.194;6.840;2022-08-20T10:53:36;40.80;;;18.50;;
18082;SDS011;9168;51.194;6.840;2022-08-20T10:56:03;42.88;;;19.75;;
18082;SDS011;9168;51.194;6.840;2022-08-20T10:58:30;30.48;;;15.35;;
18082;SDS011;9168;51.194;6.840;2022-08-20T11:00:57;28.35;;;16.10;;
18082;SDS011;9168;51.194;6.840;2022-08-20T11:03:25;41.63;;;18.80;;
18082;SDS011;9168;51.194;6.840;2022-08-20T11:05:52;38.72;;;18.45;;
18082;SDS011;9168;51.194;6.840;2022-08-20T11:08:19;33.05;;;17.85;;
18082;SDS011;9168;51.194;6.840;2022-08-20T11:10:45;37.47;;;17.10;;
18082;SDS011;9168;51.194;6.840;2022-08-20T11:13:12;36.25;;;16.40;;
18082;SDS011;9168;51.194;6.840;2022-08-20T11:15:40;36.13;;;15.32;;
18082;SDS011;9168;51.194;6.840;2022-08-20T11:18:08;28.90;;;13.40;;
18082;SDS011;9168;51.194;6.840;2022-08-20T11:20:38;39.95;;;17.50;;
18082;SDS011;9168;51.194;6.840;2022-08-20T11:23:05;33.17;;;16.08;;
18082;SDS011;9168;51.194;6.840;2022-08-20T11:25:32;28.35;;;13.98;;
18082;SDS011;9168;51.194;6.840;2022-08-20T11:27:59;41.65;;;16.75;;
18082;SDS011;9168;51.194;6.840;2022-08-20T11:30:28;30.58;;;14.80;;
18082;SDS011;9168;51.194;6.840;2022-08-20T11:32:58;31.85;;;14.48;;
18082;SDS011;9168;51.194;6.840;2022-08-20T11:35:26;36.65;;;15.13;;
18082;SDS011;9168;51.194;6.840;2022-08-20T11:37:57;28.02;;;13.85;;
18082;SDS011;9168;51.194;6.840;2022-08-20T11:40:24;26.70;;;13.18;;
18082;SDS011;9168;51.194;6.840;2022-08-20T11:42:52;26.98;;;12.40;;
18082;SDS011;9168;51.194;6.840;2022-08-20T11:45:20;28.02;;;13.32;;
18082;SDS011;9168;51.194;6.840;2022-08-20T11:47:50;26.92;;;13.13;;
18082;SDS011;9168;51.194;6.840;2022-08-20T11:50:18;24.02;;;12.70;;
18082;SDS011;9168;51.194;6.840;2022-08-20T11:52:45;25.77;;;13.15;;
18082;SDS011;9168;51.194;6.840;2022-08-20T11:55:14;28.23;;;13.90;;
18082;SDS011;9168;51.194;6.840;2022-08-20T11:57:43;31.98;;;13.90;;
18082;SDS011;9168;51.194;6.840;2022-08-20T12:00:13;22.83;;;12.32;;
18082;SDS011;9168;51.194;6.840;2022-08-20T12:02:43;21.92;;;11.88;;
18082;SDS011;9168;51.194;6.840;2022-08-20T12:05:10;22.48;;;12.10;;
18082;SDS011;9168;51.194;6.840;2022-08-20T12:07:37;23.60;;;11.57;;
18082;SDS011;9168;51.194;6.840;2022-08-20T12:10:05;19.60;;;11.68;;
18082;SDS011;9168;51.194;6.840;2022-08-20T12:12:35;25.33;;;12.52;;
18082;SDS011;9168;51.194;6.840;2022-08-20T12:15:04;21.67;;;11.18;;
18082;SDS011;9168;51.194;6.840;2022-08-20T12:17:32;17.17;;;8.55;;
18082;SDS011;9168;51.194;6.840;2022-08-20T12:20:00;18.85;;;9.88;;
18082;SDS011;9168;51.194;6.840;2022-08-20T12:22:30;20.00;;;10.80;;
18082;SDS011;9168;51.194;6.840;2022-08-20T12:24:56;18.77;;;10.27;;
18082;SDS011;9168;51.194;6.840;2022-08-20T12:27:24;19.88;;;10.43;;
18082;SDS011;9168;51.194;6.840;2022-08-20T12:29:55;22.50;;;10.20;;
18082;SDS011;9168;51.194;6.840;2022-08-20T12:32:24;19.73;;;11.40;;
18082;SDS011;9168;51.194;6.840;2022-08-20T12:34:51;20.25;;;11.30;;
18082;SDS011;9168;51.194;6.840;2022-08-20T12:37:20;15.35;;;9.63;;
18082;SDS011;9168;51.194;6.840;2022-08-20T12:39:49;17.40;;;10.55;;
18082;SDS011;9168;51.194;6.840;2022-08-20T12:42:17;14.70;;;9.80;;
18082;SDS011;9168;51.194;6.840;2022-08-20T12:44:58;14.20;;;9.30;;
18082;SDS011;9168;51.194;6.840;2022-08-20T12:47:26;16.77;;;9.93;;
18082;SDS011;9168;51.194;6.840;2022-08-20T12:49:55;20.40;;;10.27;;
18082;SDS011;9168;51.194;6.840;2022-08-20T12:52:25;19.65;;;8.93;;
18082;SDS011;9168;51.194;6.840;2022-08-20T12:54:54;14.93;;;10.15;;
18082;SDS011;9168;51.194;6.840;2022-08-20T12:57:23;14.07;;;8.18;;
18082;SDS011;9168;51.194;6.840;2022-08-20T12:59:50;17.15;;;9.75;;
18082;SDS011;9168;51.194;6.840;2022-08-20T13:02:18;19.15;;;8.60;;
18082;SDS011;9168;51.194;6.840;2022-08-20T13:04:45;17.30;;;8.38;;
18082;SDS011;9168;51.194;6.840;2022-08-20T13:07:12;15.10;;;9.05;;
18082;SDS011;9168;51.194;6.840;2022-08-20T13:09:40;17.83;;;9.60;;
18082;SDS011;9168;51.194;6.840;2022-08-20T13:12:07;17.15;;;8.80;;
18082;SDS011;9168;51.194;6.840;2022-08-20T13:14:34;16.00;;;9.20;;
18082;SDS011;9168;51.194;6.840;2022-08-20T13:17:02;16.25;;;9.05;;
18082;SDS011;9168;51.194;6.840;2022-08-20T13:19:31;18.98;;;7.97;;
18082;SDS011;9168;51.194;6.840;2022-08-20T13:21:59;19.88;;;7.18;;
18082;SDS011;9168;51.194;6.840;2022-08-20T13:24:27;16.60;;;7.05;;
18082;SDS011;9168;51.194;6.840;2022-08-20T13:27:02;17.65;;;7.90;;
18082;SDS011;9168;51.194;6.840;2022-08-20T13:29:30;17.42;;;8.13;;
18082;SDS011;9168;51.194;6.840;2022-08-20T13:31:57;18.88;;;7.70;;
18082;SDS011;9168;51.194;6.840;2022-08-20T13:34:23;16.98;;;7.55;;
18082;SDS011;9168;51.194;6.840;2022-08-20T13:36:52;21.13;;;9.02;;
18082;SDS011;9168;51.194;6.840;2022-08-20T13:39:20;15.68;;;7.13;;
18082;SDS011;9168;51.194;6.840;2022-08-20T13:41:47;17.25;;;7.40;;
18082;SDS011;9168;51.194;6.840;2022-08-20T13:44:15;16.20;;;7.10;;
18082;SDS011;9168;51.194;6.840;2022-08-20T13:46:42;16.08;;;6.40;;
18082;SDS011;9168;51.194;6.840;2022-08-20T13:49:09;19.88;;;6.20;;
18082;SDS011;9168;51.194;6.840;2022-08-20T13:51:36;14.93;;;5.50;;
18082;SDS011;9168;51.194;6.840;2022-08-20T13:54:04;23.75;;;6.13;;
18082;SDS011;9168;51.194;6.840;2022-08-20T13:56:31;16.17;;;5.93;;
18082;SDS011;9168;51.194;6.840;2022-08-20T13:58:58;16.65;;;6.13;;
18082;SDS011;9168;51.194;6.840;2022-08-20T14:01:25;14.73;;;6.13;;
18082;SDS011;9168;51.194;6.840;2022-08-20T14:03:51;16.70;;;6.00;;
18082;SDS011;9168;51.194;6.840;2022-08-20T14:06:18;17.20;;;6.40;;
18082;SDS011;9168;51.194;6.840;2022-08-20T14:08:45;18.23;;;6.10;;
18082;SDS011;9168;51.194;6.840;2022-08-20T14:11:13;14.38;;;5.97;;
18082;SDS011;9168;51.194;6.840;2022-08-20T14:13:41;16.92;;;5.95;;
18082;SDS011;9168;51.194;6.840;2022-08-20T14:16:07;17.15;;;6.40;;
18082;SDS011;9168;51.194;6.840;2022-08-20T14:18:34;13.48;;;5.72;;
18082;SDS011;9168;51.194;6.840;2022-08-20T14:21:01;11.05;;;5.10;;
18082;SDS011;9168;51.194;6.840;2022-08-20T14:23:28;13.77;;;5.55;;
18082;SDS011;9168;51.194;6.840;2022-08-20T14:25:55;15.52;;;5.45;;
18082;SDS011;9168;51.194;6.840;2022-08-20T14:28:23;10.90;;;4.68;;
18082;SDS011;9168;51.194;6.840;2022-08-20T14:30:50;15.60;;;5.05;;
18082;SDS011;9168;51.194;6.840;2022-08-20T14:33:17;15.85;;;5.22;;
18082;SDS011;9168;51.194;6.840;2022-08-20T14:35:44;14.52;;;5.57;;
18082;SDS011;9168;51.194;6.840;2022-08-20T14:38:11;11.45;;;4.97;;
18082;SDS011;9168;51.194;6.840;2022-08-20T14:40:38;13.45;;;5.10;;
18082;SDS011;9168;51.194;6.840;2022-08-20T14:43:05;13.50;;;5.30;;
18082;SDS011;9168;51.194;6.840;2022-08-20T14:45:35;10.43;;;4.93;;
18082;SDS011;9168;51.194;6.840;2022-08-20T14:48:02;12.48;;;4.90;;
18082;SDS011;9168;51.194;6.840;2022-08-20T14:50:33;14.45;;;5.18;;
18082;SDS011;9168;51.194;6.840;2022-08-20T14:53:01;11.23;;;5.18;;
18082;SDS011;9168;51.194;6.840;2022-08-20T14:55:29;13.40;;;5.15;;
18082;SDS011;9168;51.194;6.840;2022-08-20T14:57:57;13.32;;;5.05;;
18082;SDS011;9168;51.194;6.840;2022-08-20T15:00:25;11.77;;;4.35;;